Wheeler, Indiana
Current Conditions -  °F | °C
As of 9:56 PM on Wednesday 22 Oct 2014 (Local Time) from KVPZ Reporting Station
Clear Clear  
Wind Chill:   Ceiling: Unl
Heat Index:   Visibility: 10mi
Dew Point:   Wind: 5mph
Humidity: 93%   Direction: 60°ENE
Pressure: 30.28"   Gusts: NA
Location:  41.51°N, 87.18°W
Report Text: KVPZ 230256Z AUTO 06004KT 10SM CLR 03/02 A3028 RMK AO2 SLP260 T00280017 53000 TSNO
Loading
Personal Weather Stations






























Interactive Weather Map
Tropical Storm Tracking
New forecast layout! Learn more

10-Day Weather Forecast

Advertisements
Track Severe Weather on mobile